Terminal Aerodrome Forecast
Issued by NWS

Home | Current Version | Previous Version | Text Only | Print | Product List | Glossary Off
Versions: 1 2 3 4 5 6 7 8 9 10 11 12 13 14

362
FTUS43 KIWX 250533
TAFSBN
TAF
KSBN 250533Z 2506/2606 12006KT P6SM SKC
     FM251300 14008KT P6SM BKN060
     FM260200 18010KT P6SM VCTS SCT050CB BKN100=

USA.gov is the U.S. government's official web portal to all federal, state and local government web resources and services.